RDBK12 YSHW-YSHW
Flight info
| Callsign | RDBK12 |
|---|---|
| Flight time | 0h 6m |
| Altitude | 1000 |
| Route | YSHW DCT 340257S1505340E DCT 340317S1505345E DCT 340433S1505300E DCT 340442S1505437E DCT YSHW |
| Aircraft | H60/M-SDFGRY/LB1 |
Departure
| Time | 2026-05-08 06:10 |
|---|---|
| Airport | Holsworthy (Military) Airport (YSHW) |
Arrival
| Time | 2026-05-08 06:16 |
|---|---|
| Airport | Holsworthy (Military) Airport (YSHW) |
| Time | Latitude | Longitude | Altitude | Speed | Heading |
|---|---|---|---|---|---|
| 2026-05-08 06:10 | -34.03414 | 150.89959 | 833 ft | 96 kts | 227° |
| 2026-05-08 06:10 | -34.03935 | 150.89465 | 835 ft | 87 kts | 221° |
| 2026-05-08 06:10 | -34.04440 | 150.89271 | 837 ft | 69 kts | 199° |
| 2026-05-08 06:10 | -34.04916 | 150.89477 | 836 ft | 83 kts | 185° |
| 2026-05-08 06:11 | -34.05596 | 150.89542 | 816 ft | 110 kts | 173° |
| 2026-05-08 06:11 | -34.06120 | 150.90226 | 808 ft | 126 kts | 109° |
| 2026-05-08 06:11 | -34.06022 | 150.90902 | 819 ft | 126 kts | 62° |
| 2026-05-08 06:11 | -34.05092 | 150.91227 | 816 ft | 102 kts | 319° |
| 2026-05-08 06:12 | -34.04918 | 150.90519 | 817 ft | 90 kts | 256° |
| 2026-05-08 06:12 | -34.05083 | 150.89838 | 832 ft | 80 kts | 255° |
| 2026-05-08 06:12 | -34.05231 | 150.89218 | 816 ft | 74 kts | 255° |
| 2026-05-08 06:12 | -34.05322 | 150.88642 | 826 ft | 64 kts | 306° |
| 2026-05-08 06:13 | -34.05043 | 150.88567 | 790 ft | 58 kts | 62° |
| 2026-05-08 06:13 | -34.04850 | 150.88893 | 825 ft | 80 kts | 67° |
| 2026-05-08 06:13 | -34.04423 | 150.89698 | 848 ft | 95 kts | 69° |
| 2026-05-08 06:13 | -34.04217 | 150.90188 | 830 ft | 103 kts | 68° |
| 2026-05-08 06:14 | -34.03955 | 150.91027 | 839 ft | 111 kts | 100° |
| 2026-05-08 06:14 | -34.04011 | 150.91972 | 845 ft | 117 kts | 108° |
| 2026-05-08 06:14 | -34.04503 | 150.92642 | 824 ft | 108 kts | 179° |
| 2026-05-08 06:14 | -34.05105 | 150.92361 | 837 ft | 85 kts | 232° |
| 2026-05-08 06:15 | -34.05553 | 150.91869 | 838 ft | 88 kts | 235° |
| 2026-05-08 06:15 | -34.05959 | 150.91334 | 835 ft | 88 kts | 239° |
| 2026-05-08 06:15 | -34.06353 | 150.90747 | 834 ft | 92 kts | 238° |
| 2026-05-08 06:15 | -34.06741 | 150.90144 | 828 ft | 90 kts | 239° |
| 2026-05-08 06:16 | -34.07087 | 150.89567 | 831 ft | 85 kts | 248° |
| 2026-05-08 06:16 | -34.07257 | 150.88870 | 830 ft | 82 kts | 257° |
| 2026-05-08 06:16 | -34.07591 | 150.88433 | 835 ft | 66 kts | 208° |
| 2026-05-08 06:16 | -34.07701 | 150.88078 | 828 ft | 39 kts | 340° |
| 2026-05-08 06:17 | -34.06627 | 150.88147 | 943 ft | 96 kts | 8° |
| 2026-05-08 06:17 | -34.05957 | 150.88475 | 945 ft | 116 kts | 22° |
| 2026-05-08 06:17 | -34.05238 | 150.89044 | 758 ft | 132 kts | 39° |
| 2026-05-08 06:18 | -34.04533 | 150.89819 | 681 ft | 138 kts | 40° |
| 2026-05-08 06:18 | -34.03802 | 150.90598 | 631 ft | 138 kts | 39° |
| 2026-05-08 06:18 | -34.03094 | 150.91332 | 639 ft | 131 kts | 39° |
| 2026-05-08 06:18 | -34.02416 | 150.92013 | 679 ft | 126 kts | 37° |
| 2026-05-08 06:19 | -34.01877 | 150.92678 | 597 ft | 102 kts | 66° |
| 2026-05-08 06:19 | -34.01650 | 150.93500 | 739 ft | 110 kts | 82° |
| 2026-05-08 06:19 | -34.01439 | 150.94452 | 743 ft | 121 kts | 78° |
| 2026-05-08 06:19 | -34.01196 | 150.95429 | 703 ft | 113 kts | 59° |
| 2026-05-08 06:20 | -34.00630 | 150.95951 | 640 ft | 101 kts | 12° |
| 2026-05-08 06:20 | -34.00060 | 150.95846 | 473 ft | 68 kts | 320° |
| 2026-05-08 06:20 | -33.99789 | 150.95570 | 297 ft | 31 kts | 312° |
| 2026-05-08 06:20 | -33.99698 | 150.95442 | 243 ft | 10 kts | 311° |
| 2026-05-08 06:21 | -33.99650 | 150.95370 | 237 ft | 8 kts | 308° |
| 2026-05-08 06:21 | -33.99618 | 150.95315 | 238 ft | 11 kts | 304° |
| 2026-05-08 06:21 | -33.99555 | 150.95329 | 238 ft | 9 kts | 72° |
| 2026-05-08 06:21 | -33.99563 | 150.95356 | 238 ft | 0 kts | 124° |